• Join FlightAware (Why Join?)
  • Login
  • US Flag 
06:55AM EDT


 

Airport Tracker/Info


-or-


 

Live Flight TrackerFlight Track Log ✈ KAP819 ✈ 23-Jun-2013 ✈ KALB - KOGS

Flight Track Log - Related Links

Times and Time Zones

All times are in EDT time to prevent confusion due to time zone crossing. See the KAP819 flight status page for this flight to view local times or setup timezone preferences in your user account.

Time Position Orientation Groundspeed Altitude Reporting Facility
EDT Latitude Longitude Course Direction KTS MPH feet Rate Location/Type
07:22PM 42.7750 -73.8544 317° Northwest 125 144 1,700  Level Boston Center
07:23PM 42.8083 -73.8550 359° North 121 139 2,600 720 Climbing Boston Center
07:24PM 42.8458 -73.8644 350° North 130 150 3,300 660 Climbing Boston Center
07:25PM 42.8747 -73.8822 336° Northwest 125 144 4,100 660 Climbing Boston Center
07:26PM 42.9119 -73.9058 335° Northwest 130 150 4,700 540 Climbing Boston Center
07:27PM 42.9450 -73.9292 333° Northwest 139 160 5,300 600 Climbing Boston Center
07:28PM 42.9739 -73.9583 324° Northwest 134 154 6,000 720 Climbing Boston Center
07:29PM 42.9903 -73.9700 332° Northwest 139 160 6,500 660 Climbing Boston Center
07:30PM 43.0211 -73.9992 325° Northwest 134 154 7,100 600 Climbing Boston Center
07:31PM 43.0500 -74.0283 324° Northwest 134 154 7,800 480 Climbing Boston Center
07:32PM 43.0850 -74.0519 334° Northwest 129 148 8,100 60 Climbing Boston Center
07:33PM 43.1222 -74.0842 328° Northwest 149 171 8,000  Descending Boston Center
07:34PM 43.1550 -74.1222 320° Northwest 154 177 8,100  Climbing Boston Center
07:35PM 43.1983 -74.1519 333° Northwest 159 183 8,100  Level Boston Center
07:36PM 43.2353 -74.1786 332° Northwest 159 183 8,100  Level Boston Center
07:37PM 43.2703 -74.2108 326° Northwest 159 183 8,100 -60 Level Boston Center
07:38PM 43.3053 -74.2406 328° Northwest 159 183 8,000 -60 Descending Boston Center
07:39PM 43.3422 -74.2700 330° Northwest 159 183 8,000  Level Boston Center
07:40PM 43.3753 -74.3025 324° Northwest 154 177 8,100  Climbing Boston Center
07:41PM 43.4100 -74.3408 321° Northwest 154 177 8,000  Descending Boston Center
07:42PM 43.4469 -74.3675 332° Northwest 149 171 8,100  Climbing Boston Center
07:43PM 43.4797 -74.4000 324° Northwest 149 171 8,100  Level Boston Center
07:44PM 43.5147 -74.4328 326° Northwest 149 171 8,100 -60 Level Boston Center
07:45PM 43.5517 -74.4597 332° Northwest 149 171 8,000 -60 Descending Boston Center
07:46PM 43.5844 -74.4925 324° Northwest 149 171 8,000  Level Boston Center
07:47PM 43.6214 -74.5194 332° Northwest 149 171 8,000  Level Boston Center
07:48PM 43.6586 -74.5436 335° Northwest 144 166 8,000  Level Boston Center
07:49PM 43.6914 -74.5736 327° Northwest 144 166 8,000  Level Boston Center
07:50PM 43.7261 -74.6064 326° Northwest 144 166 8,100  Climbing Boston Center
07:51PM 43.7611 -74.6364 328° Northwest 144 166 8,100 -60 Level Boston Center
07:52PM 43.7939 -74.6692 324° Northwest 144 166 8,000  Descending Boston Center
07:53PM 43.8264 -74.7022 324° Northwest 150 173 8,100  Climbing Boston Center
07:54PM 43.8633 -74.7322 330° Northwest 150 173 8,000 -60 Descending Boston Center
07:55PM 43.8961 -74.7622 327° Northwest 150 173 8,000  Level Boston Center
07:56PM 43.9308 -74.7925 328° Northwest 150 173 8,000 -60 Level Boston Center
07:57PM 43.9658 -74.8228 328° Northwest 150 173 7,900  Descending Boston Center
07:58PM 44.0006 -74.8472 333° Northwest 144 166 8,000  Climbing Boston Center
07:59PM 44.0436 -74.8864 327° Northwest 144 166 7,900  Descending Boston Center
08:00PM 44.0783 -74.9139 330° Northwest 144 166 8,000 -120 Climbing Boston Center
08:01PM 44.1131 -74.9500 323° Northwest 144 166 7,700 -300 Descending Boston Center
08:02PM 44.1497 -74.9864 325° Northwest 149 171 7,400 -360 Descending Boston Center
08:03PM 44.1867 -75.0169 329° Northwest 154 177 7,000 -420 Descending Boston Center
08:04PM 44.2275 -75.0478 332° Northwest 154 177 6,600 -420 Descending Boston Center
08:05PM 44.2664 -75.0783 331° Northwest 159 183 6,200 -360 Descending Boston Center
08:06PM 44.3053 -75.1150 326° Northwest 164 189 5,900 -180 Descending Boston Center
08:07PM 44.3378 -75.1453 326° Northwest 159 183 5,900  Level Boston Center
08:08PM 44.3747 -75.1761 329° Northwest 154 177 5,900 -300 Level Boston Center
08:09PM 44.4203 -75.1897 348° North 149 171 5,400 -540 Descending Boston Center
08:10PM 44.4653 -75.2181 336° Northwest 161 185 4,900 -540 Descending Boston Center
08:11PM 44.5003 -75.2344 342° North 166 191 4,400 -600 Descending Boston Center
08:12PM 44.5539 -75.2572 343° North 166 191 3,700 -840 Descending Boston Center
08:13PM 44.6031 -75.2947 331° Northwest 172 198 2,800 -900 Descending Boston Center